createdAt,value
2017-12-31T00:02:20.957Z,46.81
2017-12-31T00:04:46.857Z,47.05
2017-12-31T00:07:13.633Z,46.92
2017-12-31T00:09:40.419Z,47.14
2017-12-31T00:12:06.222Z,47.18
2017-12-31T00:14:32.070Z,46.91
2017-12-31T00:16:57.868Z,46.72
2017-12-31T00:19:23.672Z,46.82
2017-12-31T00:21:49.470Z,47.37
2017-12-31T00:24:15.273Z,47.01
2017-12-31T00:26:41.164Z,46.70
2017-12-31T00:29:06.969Z,46.88
2017-12-31T00:31:32.772Z,47.10
2017-12-31T00:33:59.635Z,46.58
2017-12-31T00:36:25.437Z,46.74
2017-12-31T00:38:51.277Z,46.96
2017-12-31T00:41:17.597Z,47.01
2017-12-31T00:43:43.446Z,47.41
2017-12-31T00:46:09.386Z,47.53
2017-12-31T00:48:35.248Z,47.25
2017-12-31T00:51:01.082Z,46.97
2017-12-31T00:53:26.930Z,46.82
2017-12-31T00:55:52.768Z,46.85
2017-12-31T00:58:18.609Z,46.77
2017-12-31T01:00:44.421Z,47.00
2017-12-31T01:03:10.222Z,47.36
2017-12-31T01:05:36.025Z,46.88
2017-12-31T01:08:01.839Z,46.67
2017-12-31T01:10:27.651Z,46.49
2017-12-31T01:12:53.448Z,46.97
2017-12-31T01:15:19.285Z,47.03
2017-12-31T01:17:45.092Z,47.24
2017-12-31T01:20:10.930Z,47.37
2017-12-31T01:22:36.862Z,47.29
2017-12-31T01:25:02.822Z,47.11
2017-12-31T01:27:29.537Z,46.84
2017-12-31T01:29:56.318Z,47.13
2017-12-31T01:32:22.985Z,47.12
2017-12-31T01:34:48.933Z,47.19
2017-12-31T01:37:14.729Z,47.39
2017-12-31T01:39:40.536Z,47.12
2017-12-31T01:42:06.557Z,47.20
2017-12-31T01:44:32.360Z,46.49
2017-12-31T01:46:58.201Z,46.77
2017-12-31T01:49:24.165Z,47.03
2017-12-31T01:51:50.009Z,47.21
2017-12-31T01:54:15.852Z,47.21
2017-12-31T01:56:41.720Z,47.26
2017-12-31T01:59:07.532Z,46.62
2017-12-31T02:01:34.171Z,46.74
2017-12-31T02:04:00.925Z,46.42
2017-12-31T02:06:26.726Z,46.46
2017-12-31T02:08:53.316Z,46.30
2017-12-31T02:11:19.939Z,46.49
2017-12-31T02:13:45.785Z,46.38
2017-12-31T02:16:11.591Z,46.55
2017-12-31T02:18:37.393Z,46.49
2017-12-31T02:21:03.193Z,46.44
2017-12-31T02:23:28.989Z,46.33
2017-12-31T02:25:54.788Z,46.46
2017-12-31T02:28:20.635Z,46.53
2017-12-31T02:30:46.467Z,46.71
2017-12-31T02:33:12.406Z,47.24
2017-12-31T02:35:38.213Z,46.96
2017-12-31T02:38:04.014Z,46.70
2017-12-31T02:40:29.817Z,46.79
2017-12-31T02:42:55.622Z,46.68
2017-12-31T02:45:21.646Z,46.58
2017-12-31T02:47:47.776Z,46.72
2017-12-31T02:50:13.590Z,46.64
2017-12-31T02:52:39.441Z,47.18
2017-12-31T02:55:05.248Z,46.70
2017-12-31T02:57:31.050Z,47.44
2017-12-31T02:59:56.872Z,47.21
2017-12-31T03:02:22.675Z,47.03
2017-12-31T03:04:48.483Z,47.06
2017-12-31T03:07:14.298Z,46.67
2017-12-31T03:09:40.142Z,47.10
2017-12-31T03:12:05.937Z,46.73
2017-12-31T03:14:31.736Z,46.67
2017-12-31T03:16:57.577Z,46.97
2017-12-31T03:19:23.382Z,47.02
2017-12-31T03:21:49.185Z,46.99
2017-12-31T03:24:15.016Z,46.82
2017-12-31T03:26:40.890Z,46.93
2017-12-31T03:29:06.702Z,47.00
2017-12-31T03:31:32.506Z,46.92
2017-12-31T03:33:58.318Z,46.91
2017-12-31T03:36:24.122Z,46.96
2017-12-31T03:38:49.936Z,47.11
2017-12-31T03:41:15.742Z,46.94
2017-12-31T03:43:41.541Z,47.13
2017-12-31T03:46:07.345Z,45.99
2017-12-31T03:48:33.186Z,46.83
2017-12-31T03:50:59.021Z,46.75
2017-12-31T03:53:24.965Z,46.99
2017-12-31T03:55:50.812Z,46.88
2017-12-31T03:58:16.621Z,46.51
2017-12-31T04:00:42.457Z,46.57
2017-12-31T04:03:08.345Z,46.47
2017-12-31T04:05:34.190Z,46.30
2017-12-31T04:08:00.039Z,46.88
2017-12-31T04:10:25.856Z,47.07
2017-12-31T04:12:51.722Z,46.72
2017-12-31T04:15:17.665Z,46.28
2017-12-31T04:17:43.469Z,46.19
2017-12-31T04:20:09.279Z,46.40
2017-12-31T04:22:35.088Z,46.05
2017-12-31T04:25:00.895Z,46.29
2017-12-31T04:27:26.742Z,46.49
2017-12-31T04:29:52.592Z,46.53
2017-12-31T04:32:18.397Z,46.65
2017-12-31T04:34:44.246Z,46.68
2017-12-31T04:37:10.070Z,46.73
2017-12-31T04:39:35.914Z,46.36
2017-12-31T04:42:01.761Z,45.73
2017-12-31T04:44:27.566Z,45.97
2017-12-31T04:46:53.628Z,45.82
2017-12-31T04:49:19.601Z,46.62
2017-12-31T04:51:45.410Z,45.94
2017-12-31T04:54:11.222Z,46.36
2017-12-31T04:56:37.071Z,46.30
2017-12-31T04:59:02.941Z,46.38
2017-12-31T05:01:28.744Z,45.70
2017-12-31T05:03:54.590Z,45.56
2017-12-31T05:06:20.401Z,45.66
2017-12-31T05:08:46.334Z,46.03
2017-12-31T05:11:12.134Z,45.59
2017-12-31T05:13:37.981Z,46.00
2017-12-31T05:16:03.799Z,46.27
2017-12-31T05:18:29.601Z,46.55
2017-12-31T05:20:55.405Z,46.25
2017-12-31T05:23:21.210Z,45.90
2017-12-31T05:25:47.017Z,45.89
2017-12-31T05:28:12.909Z,46.10
2017-12-31T05:30:38.759Z,45.83
2017-12-31T05:33:05.110Z,45.95
2017-12-31T05:35:30.921Z,46.50
2017-12-31T05:37:56.726Z,46.25
2017-12-31T05:40:22.529Z,45.66
2017-12-31T05:42:48.333Z,45.85
2017-12-31T05:45:14.149Z,46.61
2017-12-31T05:47:39.956Z,45.99
2017-12-31T05:50:05.813Z,46.21
2017-12-31T05:52:31.631Z,46.33
2017-12-31T05:54:57.435Z,46.41
2017-12-31T05:57:23.346Z,46.22
2017-12-31T05:59:49.161Z,46.12
2017-12-31T06:02:14.961Z,45.75
2017-12-31T06:04:40.765Z,45.77
2017-12-31T06:07:06.572Z,46.33
2017-12-31T06:09:32.627Z,46.41
2017-12-31T06:11:58.730Z,45.99
2017-12-31T06:14:24.535Z,45.60
2017-12-31T06:16:50.377Z,45.53
2017-12-31T06:19:16.185Z,45.95
2017-12-31T06:21:41.992Z,45.72
2017-12-31T06:24:07.797Z,46.26
2017-12-31T06:26:33.602Z,45.47
2017-12-31T06:28:59.634Z,46.13
2017-12-31T06:31:25.470Z,45.52
2017-12-31T06:33:51.278Z,45.68
2017-12-31T06:36:17.145Z,46.01
2017-12-31T06:38:42.949Z,45.75
2017-12-31T06:41:08.757Z,45.97
2017-12-31T06:43:34.613Z,46.00
2017-12-31T06:46:00.418Z,46.18
2017-12-31T06:48:26.829Z,45.59
2017-12-31T06:50:52.649Z,45.91
2017-12-31T06:53:18.453Z,45.55
2017-12-31T06:55:44.257Z,45.44
2017-12-31T06:58:10.066Z,45.43
2017-12-31T07:00:35.870Z,45.63
2017-12-31T07:03:01.686Z,45.58
2017-12-31T07:05:27.705Z,45.17
2017-12-31T07:07:53.519Z,45.03
2017-12-31T07:10:19.374Z,45.43
2017-12-31T07:12:45.223Z,45.49
2017-12-31T07:15:11.026Z,45.62
2017-12-31T07:17:36.901Z,45.52
2017-12-31T07:20:02.770Z,45.09
2017-12-31T07:22:28.577Z,45.12
2017-12-31T07:24:54.562Z,45.54
2017-12-31T07:27:20.374Z,45.24
2017-12-31T07:29:46.193Z,45.54
2017-12-31T07:32:11.999Z,45.35
2017-12-31T07:34:37.848Z,45.31
2017-12-31T07:37:03.766Z,45.16
2017-12-31T07:39:29.572Z,45.27
2017-12-31T07:41:55.413Z,45.56
2017-12-31T07:44:21.217Z,45.12
2017-12-31T07:46:47.073Z,45.22
2017-12-31T07:49:12.874Z,45.29
2017-12-31T07:51:38.678Z,45.44
2017-12-31T07:54:04.542Z,45.36
2017-12-31T07:56:30.349Z,45.37
2017-12-31T07:58:56.163Z,45.18
2017-12-31T08:01:21.969Z,45.17
2017-12-31T08:03:47.819Z,44.93
2017-12-31T08:06:13.626Z,44.90
2017-12-31T08:08:39.472Z,44.97
2017-12-31T08:11:05.334Z,45.48
2017-12-31T08:13:31.142Z,45.19
2017-12-31T08:15:57.024Z,45.54
2017-12-31T08:18:22.842Z,45.24
2017-12-31T08:20:48.655Z,45.06
2017-12-31T08:23:14.471Z,45.05
2017-12-31T08:25:40.460Z,44.81
2017-12-31T08:28:06.330Z,45.15
2017-12-31T08:30:32.189Z,44.95
2017-12-31T08:32:58.034Z,45.11
2017-12-31T08:35:23.838Z,44.89
2017-12-31T08:37:49.650Z,45.20
2017-12-31T08:40:15.462Z,45.41
2017-12-31T08:42:41.278Z,44.99
2017-12-31T08:45:07.173Z,45.23
2017-12-31T08:47:33.012Z,45.24
2017-12-31T08:49:58.863Z,45.21
2017-12-31T08:52:24.809Z,45.04
2017-12-31T08:54:50.885Z,45.32
2017-12-31T08:57:16.732Z,44.86
2017-12-31T08:59:42.544Z,45.01
2017-12-31T09:02:08.394Z,45.29
2017-12-31T09:04:34.210Z,45.23
2017-12-31T09:07:00.028Z,45.23
2017-12-31T09:09:25.842Z,45.33
2017-12-31T09:11:51.697Z,45.47
2017-12-31T09:14:17.598Z,45.80
2017-12-31T09:16:43.394Z,45.42
2017-12-31T09:19:09.201Z,45.56
2017-12-31T09:21:35.019Z,45.77
2017-12-31T09:24:00.870Z,45.98
2017-12-31T09:26:26.681Z,46.16
2017-12-31T09:28:52.526Z,45.83
2017-12-31T09:31:18.479Z,45.96
2017-12-31T09:33:44.286Z,45.93
2017-12-31T09:36:10.085Z,46.00
2017-12-31T09:38:35.889Z,45.91
2017-12-31T09:41:01.696Z,46.29
2017-12-31T09:43:27.510Z,46.39
2017-12-31T09:45:53.317Z,46.42
2017-12-31T09:48:19.127Z,46.35
2017-12-31T09:50:44.945Z,46.60
2017-12-31T09:53:10.759Z,46.47
2017-12-31T09:55:36.576Z,46.53
2017-12-31T09:58:02.391Z,46.44
2017-12-31T10:00:28.195Z,46.97
2017-12-31T10:02:54.001Z,47.07
2017-12-31T10:05:19.856Z,46.80
2017-12-31T10:07:45.667Z,46.78
2017-12-31T10:10:11.472Z,47.01
2017-12-31T10:12:37.274Z,46.74
2017-12-31T10:15:03.077Z,47.06
2017-12-31T10:17:28.873Z,47.06
2017-12-31T10:19:54.678Z,47.43
2017-12-31T10:22:20.494Z,47.29
2017-12-31T10:24:46.302Z,47.28
2017-12-31T10:27:12.110Z,47.37
2017-12-31T10:29:37.974Z,47.58
2017-12-31T10:32:03.783Z,47.47
2017-12-31T10:34:29.598Z,47.33
2017-12-31T10:36:55.685Z,47.79
2017-12-31T10:39:21.529Z,47.66
2017-12-31T10:41:47.331Z,47.63
2017-12-31T10:44:13.825Z,47.90
2017-12-31T10:46:39.630Z,47.80
2017-12-31T10:49:06.470Z,47.66
2017-12-31T10:51:32.310Z,47.91
2017-12-31T10:53:58.124Z,47.63
2017-12-31T10:56:24.167Z,47.64
2017-12-31T10:58:49.974Z,47.77
2017-12-31T11:01:15.833Z,47.87
2017-12-31T11:03:41.637Z,47.75
2017-12-31T11:06:07.454Z,47.70
2017-12-31T11:08:33.306Z,48.02
2017-12-31T11:10:59.123Z,48.36
2017-12-31T11:13:25.143Z,47.86
2017-12-31T11:15:51.022Z,47.98
2017-12-31T11:18:16.829Z,48.03
2017-12-31T11:20:42.643Z,48.20
2017-12-31T11:23:08.449Z,48.07
2017-12-31T11:25:34.265Z,48.01
2017-12-31T11:28:00.075Z,48.05
2017-12-31T11:30:25.990Z,48.37
2017-12-31T11:32:51.862Z,48.21
2017-12-31T11:35:17.780Z,48.25
2017-12-31T11:37:43.853Z,48.59
2017-12-31T11:40:09.665Z,48.40
2017-12-31T11:42:35.507Z,48.38
2017-12-31T11:45:01.313Z,48.85
2017-12-31T11:47:27.166Z,48.41
2017-12-31T11:49:52.981Z,48.43
2017-12-31T11:52:18.789Z,49.26
2017-12-31T11:54:44.650Z,48.49
2017-12-31T11:57:10.463Z,48.78
2017-12-31T11:59:36.274Z,48.72
2017-12-31T12:02:02.115Z,48.58
2017-12-31T12:04:27.926Z,48.84
2017-12-31T12:06:53.776Z,48.48
2017-12-31T12:09:19.578Z,48.67
2017-12-31T12:11:45.426Z,49.29
2017-12-31T12:14:11.233Z,49.01
2017-12-31T12:16:37.276Z,49.01
2017-12-31T12:19:03.149Z,48.99
2017-12-31T12:21:28.966Z,49.07
2017-12-31T12:23:54.936Z,48.76
2017-12-31T12:26:20.743Z,49.07
2017-12-31T12:28:46.547Z,49.46
2017-12-31T12:31:12.358Z,48.97
2017-12-31T12:33:38.237Z,49.20
2017-12-31T12:36:04.370Z,49.20
2017-12-31T12:38:30.358Z,49.55
2017-12-31T12:40:56.974Z,50.39
2017-12-31T12:43:22.811Z,49.86
2017-12-31T12:45:48.693Z,50.09
2017-12-31T12:48:14.566Z,50.07
2017-12-31T12:50:40.385Z,49.85
2017-12-31T12:53:07.215Z,49.46
2017-12-31T12:55:33.125Z,49.44
2017-12-31T12:57:58.934Z,49.06
2017-12-31T13:00:24.910Z,49.63
2017-12-31T13:02:50.827Z,49.49
2017-12-31T13:05:16.662Z,49.48
2017-12-31T13:07:42.590Z,49.69
2017-12-31T13:10:08.464Z,49.84
2017-12-31T13:12:34.409Z,49.56
2017-12-31T13:15:00.278Z,49.84
2017-12-31T13:17:26.164Z,50.01
2017-12-31T13:19:52.035Z,50.01
2017-12-31T13:22:18.597Z,49.90
2017-12-31T13:24:44.523Z,49.83
2017-12-31T13:27:10.462Z,50.02
2017-12-31T13:29:36.305Z,49.77
2017-12-31T13:32:02.214Z,49.62
2017-12-31T13:34:28.294Z,50.17
2017-12-31T13:36:54.168Z,50.21
2017-12-31T13:39:20.329Z,50.14
2017-12-31T13:41:46.248Z,50.26
2017-12-31T13:44:12.063Z,50.05
2017-12-31T13:46:37.906Z,50.80
2017-12-31T13:49:03.763Z,50.73
2017-12-31T13:51:29.570Z,50.89
2017-12-31T13:53:55.398Z,51.21
2017-12-31T13:56:21.250Z,51.20
2017-12-31T13:58:47.058Z,51.21
2017-12-31T14:01:12.871Z,51.34
2017-12-31T14:03:38.678Z,51.15
2017-12-31T14:06:04.522Z,51.05
2017-12-31T14:08:30.354Z,51.02
2017-12-31T14:10:56.153Z,51.41
2017-12-31T14:13:21.964Z,51.30
2017-12-31T14:15:47.773Z,50.87
2017-12-31T14:18:13.593Z,51.19
2017-12-31T14:20:39.542Z,51.42
2017-12-31T14:23:07.258Z,51.56
2017-12-31T14:25:33.067Z,51.11
2017-12-31T14:27:58.874Z,51.15
2017-12-31T14:30:24.755Z,51.48
2017-12-31T14:32:50.655Z,51.52
2017-12-31T14:35:16.467Z,51.42
2017-12-31T14:37:42.276Z,51.48
2017-12-31T14:40:08.127Z,51.26
2017-12-31T14:42:33.935Z,51.20
2017-12-31T14:44:59.745Z,51.65
2017-12-31T14:47:25.556Z,51.51
2017-12-31T14:49:51.365Z,51.29
2017-12-31T14:52:17.172Z,51.68
2017-12-31T14:54:42.994Z,51.69
2017-12-31T14:57:09.062Z,51.78
2017-12-31T14:59:34.866Z,51.75
2017-12-31T15:02:00.686Z,51.56
2017-12-31T15:04:26.499Z,51.31
2017-12-31T15:06:52.312Z,51.07
2017-12-31T15:09:18.162Z,51.16
2017-12-31T15:11:43.977Z,51.07
2017-12-31T15:14:10.650Z,51.35
2017-12-31T15:16:36.493Z,51.24
2017-12-31T15:19:02.304Z,51.53
2017-12-31T15:21:28.380Z,51.55
2017-12-31T15:23:54.262Z,51.32
2017-12-31T15:26:20.113Z,51.09
2017-12-31T15:28:45.922Z,51.21
2017-12-31T15:31:11.771Z,50.77
2017-12-31T15:33:37.586Z,51.25
2017-12-31T15:36:03.407Z,50.86
2017-12-31T15:38:29.214Z,51.06
2017-12-31T15:40:55.029Z,50.91
2017-12-31T15:43:20.942Z,51.03
2017-12-31T15:45:47.003Z,50.69
2017-12-31T15:48:13.544Z,50.35
2017-12-31T15:50:39.436Z,50.99
2017-12-31T15:53:06.474Z,50.74
2017-12-31T15:55:32.301Z,50.63
2017-12-31T15:57:58.483Z,50.79
2017-12-31T16:00:24.313Z,50.39
2017-12-31T16:02:50.189Z,50.76
2017-12-31T16:05:16.093Z,50.43
2017-12-31T16:07:42.659Z,50.63
2017-12-31T16:10:08.638Z,50.57
2017-12-31T16:12:34.476Z,50.65
2017-12-31T16:15:00.286Z,50.66
2017-12-31T16:17:26.495Z,50.47
2017-12-31T16:19:52.323Z,50.53
2017-12-31T16:22:18.138Z,50.85
2017-12-31T16:24:44.171Z,50.34
2017-12-31T16:27:09.981Z,50.60
2017-12-31T16:29:35.785Z,50.50
2017-12-31T16:32:01.629Z,50.40
2017-12-31T16:34:27.470Z,50.39
2017-12-31T16:36:53.685Z,49.97
2017-12-31T16:39:20.163Z,50.26
2017-12-31T16:41:46.115Z,50.75
2017-12-31T16:44:11.941Z,50.50
2017-12-31T16:46:39.554Z,50.42
2017-12-31T16:49:05.390Z,50.80
2017-12-31T16:51:31.194Z,50.12
2017-12-31T16:53:57.151Z,49.91
2017-12-31T16:56:23.902Z,50.00
2017-12-31T16:58:49.946Z,50.32
2017-12-31T17:01:19.081Z,50.53
2017-12-31T17:03:48.973Z,50.82
2017-12-31T17:06:14.978Z,50.69
2017-12-31T17:08:40.930Z,50.35
2017-12-31T17:11:07.538Z,50.14
2017-12-31T17:13:34.478Z,50.24
2017-12-31T17:16:01.691Z,49.68
2017-12-31T17:18:27.664Z,50.11
2017-12-31T17:20:53.586Z,50.27
2017-12-31T17:23:19.478Z,50.53
2017-12-31T17:25:45.358Z,50.08
2017-12-31T17:28:11.402Z,49.62
2017-12-31T17:30:37.370Z,49.73
2017-12-31T17:33:10.528Z,49.79
2017-12-31T17:35:36.638Z,50.52
2017-12-31T17:38:02.622Z,50.78
2017-12-31T17:40:28.634Z,50.67
2017-12-31T17:42:54.622Z,50.32
2017-12-31T17:45:20.795Z,50.65
2017-12-31T17:47:46.707Z,50.59
2017-12-31T17:50:12.589Z,50.52
2017-12-31T17:52:38.402Z,50.60
2017-12-31T17:55:04.238Z,50.85
2017-12-31T17:57:30.071Z,50.44
2017-12-31T17:59:55.978Z,49.99
2017-12-31T18:02:21.786Z,50.55
2017-12-31T18:04:47.634Z,50.20
2017-12-31T18:07:13.470Z,50.54
2017-12-31T18:09:39.357Z,50.54
2017-12-31T18:12:08.231Z,50.42
2017-12-31T18:14:34.298Z,50.17
2017-12-31T18:17:00.226Z,50.29
2017-12-31T18:19:26.038Z,50.57
2017-12-31T18:21:52.286Z,50.63
2017-12-31T18:24:18.552Z,50.41
2017-12-31T18:26:44.367Z,50.26
2017-12-31T18:29:10.180Z,50.26
2017-12-31T18:31:35.990Z,50.60
2017-12-31T18:34:01.971Z,50.34
2017-12-31T18:36:27.786Z,50.70
2017-12-31T18:38:53.599Z,50.41
2017-12-31T18:41:19.470Z,50.43
2017-12-31T18:43:45.286Z,50.34
2017-12-31T18:46:11.097Z,49.84
2017-12-31T18:48:36.977Z,50.07
2017-12-31T18:51:02.779Z,49.71
2017-12-31T18:53:28.589Z,49.78
2017-12-31T18:55:54.531Z,50.34
2017-12-31T18:58:20.340Z,50.19
2017-12-31T19:00:46.205Z,49.63
2017-12-31T19:03:12.013Z,50.30
2017-12-31T19:05:37.919Z,50.51
2017-12-31T19:08:03.737Z,50.04
2017-12-31T19:10:29.541Z,50.28
2017-12-31T19:12:55.349Z,49.83
2017-12-31T19:15:21.340Z,50.42
2017-12-31T19:17:47.385Z,50.59
2017-12-31T19:20:13.190Z,50.57
2017-12-31T19:22:39.166Z,50.81
2017-12-31T19:25:05.187Z,49.87
2017-12-31T19:27:31.043Z,49.68
2017-12-31T19:29:56.859Z,49.98
2017-12-31T19:32:22.678Z,49.80
2017-12-31T19:34:48.482Z,50.48
2017-12-31T19:37:14.341Z,49.82
2017-12-31T19:39:41.232Z,49.73
2017-12-31T19:42:07.054Z,49.60
2017-12-31T19:44:32.987Z,49.60
2017-12-31T19:46:58.812Z,50.30
2017-12-31T19:49:24.662Z,50.19
2017-12-31T19:51:50.606Z,50.07
2017-12-31T19:54:23.466Z,50.09
2017-12-31T19:56:56.341Z,49.83
2017-12-31T19:59:22.510Z,49.77
2017-12-31T20:01:48.326Z,49.55
2017-12-31T20:04:14.294Z,49.36
2017-12-31T20:06:41.089Z,49.91
2017-12-31T20:09:06.909Z,50.28
2017-12-31T20:11:32.722Z,50.29
2017-12-31T20:13:58.537Z,50.33
2017-12-31T20:16:24.662Z,50.40
2017-12-31T20:18:50.491Z,49.85
2017-12-31T20:21:16.298Z,50.26
2017-12-31T20:23:43.577Z,50.29
2017-12-31T20:26:09.801Z,50.06
2017-12-31T20:28:35.658Z,50.09
2017-12-31T20:31:01.533Z,49.78
2017-12-31T20:33:27.394Z,49.83
2017-12-31T20:35:53.210Z,50.10
2017-12-31T20:38:19.068Z,49.84
2017-12-31T20:40:44.926Z,50.05
2017-12-31T20:43:10.742Z,49.68
2017-12-31T20:45:36.561Z,50.11
2017-12-31T20:48:02.406Z,49.85
2017-12-31T20:50:28.299Z,49.87
2017-12-31T20:52:54.110Z,50.06
2017-12-31T20:55:19.921Z,50.03
2017-12-31T20:57:46.279Z,49.38
2017-12-31T21:00:23.238Z,49.77
2017-12-31T21:02:49.732Z,50.12
2017-12-31T21:05:15.635Z,50.75
2017-12-31T21:07:41.469Z,49.81
2017-12-31T21:10:07.450Z,49.75
2017-12-31T21:12:33.306Z,49.55
2017-12-31T21:17:44.666Z,50.64
2017-12-31T21:20:11.063Z,50.40
2017-12-31T21:22:36.875Z,49.46
2017-12-31T21:25:02.838Z,49.38
2017-12-31T21:27:28.645Z,49.45
2017-12-31T21:29:54.482Z,49.17
2017-12-31T21:32:20.342Z,49.22
2017-12-31T21:34:46.290Z,48.88
2017-12-31T21:37:12.098Z,49.05
2017-12-31T21:39:37.909Z,49.51
2017-12-31T21:42:03.719Z,49.24
2017-12-31T21:44:29.672Z,49.70
2017-12-31T21:46:55.522Z,49.87
2017-12-31T21:49:21.351Z,49.67
2017-12-31T21:51:47.169Z,49.95
2017-12-31T21:54:13.340Z,50.01
2017-12-31T21:56:39.233Z,49.54
2017-12-31T21:59:05.053Z,50.06
2017-12-31T22:01:30.885Z,50.20
2017-12-31T22:03:57.886Z,49.85
2017-12-31T22:06:23.729Z,50.02
2017-12-31T22:08:49.539Z,50.32
2017-12-31T22:11:16.190Z,49.86
2017-12-31T22:13:42.591Z,49.32
2017-12-31T22:16:08.498Z,49.89
2017-12-31T22:18:34.316Z,49.90
2017-12-31T22:21:00.272Z,49.60
2017-12-31T22:23:26.199Z,50.13
2017-12-31T22:25:52.145Z,50.08
2017-12-31T22:28:18.046Z,50.19
2017-12-31T22:30:44.007Z,49.80
2017-12-31T22:33:09.850Z,50.13
2017-12-31T22:35:35.845Z,49.85
2017-12-31T22:38:01.660Z,49.24
2017-12-31T22:40:28.428Z,49.40
2017-12-31T22:42:54.261Z,48.98
2017-12-31T22:45:20.077Z,48.72
2017-12-31T22:47:45.913Z,48.66
2017-12-31T22:50:11.732Z,48.94
2017-12-31T22:52:37.628Z,48.75
2017-12-31T22:55:03.455Z,49.25
2017-12-31T22:57:29.462Z,49.34
2017-12-31T22:59:55.302Z,49.31
2017-12-31T23:02:22.369Z,49.25
2017-12-31T23:04:48.199Z,49.31
2017-12-31T23:07:14.883Z,48.83
2017-12-31T23:09:40.842Z,49.72
2017-12-31T23:12:06.697Z,49.73
2017-12-31T23:14:33.009Z,49.10
2017-12-31T23:16:58.842Z,49.07
2017-12-31T23:19:24.726Z,49.68
2017-12-31T23:21:51.038Z,49.36
2017-12-31T23:24:28.026Z,49.72
2017-12-31T23:26:55.728Z,49.71
2017-12-31T23:29:21.750Z,49.16
2017-12-31T23:31:47.623Z,49.71
2017-12-31T23:34:13.705Z,49.48
2017-12-31T23:36:39.692Z,49.33
2017-12-31T23:39:05.584Z,48.87
2017-12-31T23:41:31.394Z,49.68
2017-12-31T23:43:57.264Z,49.20
2017-12-31T23:46:23.232Z,48.99
2017-12-31T23:48:49.058Z,49.20
2017-12-31T23:51:15.022Z,50.10
2017-12-31T23:53:41.238Z,49.36
2017-12-31T23:56:07.089Z,49.34
2017-12-31T23:58:32.906Z,49.14
